createdAt,value
2018-02-18T00:00:16.338Z,0
2018-02-18T00:01:16.048Z,0
2018-02-18T00:02:15.729Z,0
2018-02-18T00:03:15.626Z,0
2018-02-18T00:04:15.870Z,0
2018-02-18T00:05:15.849Z,0
2018-02-18T00:06:15.819Z,0
2018-02-18T00:07:15.693Z,0
2018-02-18T00:08:15.752Z,0
2018-02-18T00:09:15.620Z,0
2018-02-18T00:10:15.624Z,0
2018-02-18T00:11:15.304Z,0
2018-02-18T00:12:15.949Z,0
2018-02-18T00:13:15.429Z,0
2018-02-18T00:14:15.431Z,0
2018-02-18T00:15:15.467Z,0
2018-02-18T00:16:15.653Z,0
2018-02-18T00:17:15.349Z,0
2018-02-18T00:18:15.484Z,0
2018-02-18T00:19:15.600Z,0
2018-02-18T00:20:15.323Z,0
2018-02-18T00:21:15.076Z,0
2018-02-18T00:22:15.610Z,0
2018-02-18T00:23:15.127Z,0
2018-02-18T00:24:15.366Z,0
2018-02-18T00:25:15.600Z,0
2018-02-18T00:26:15.318Z,0
2018-02-18T00:27:15.291Z,0
2018-02-18T00:28:15.266Z,0
2018-02-18T00:29:15.238Z,0
2018-02-18T00:30:15.221Z,0
2018-02-18T00:31:15.464Z,0
2018-02-18T00:32:15.162Z,0
2018-02-18T00:33:14.878Z,0
2018-02-18T00:34:14.861Z,0
2018-02-18T00:35:15.383Z,0
2018-02-18T00:36:14.806Z,0
2018-02-18T00:37:14.776Z,0
2018-02-18T00:38:15.017Z,0
2018-02-18T00:39:15.249Z,0
2018-02-18T00:40:14.969Z,0
2018-02-18T00:41:14.930Z,0
2018-02-18T00:42:14.382Z,0
2018-02-18T00:43:14.629Z,0
2018-02-18T00:44:14.333Z,0
2018-02-18T00:45:14.583Z,0
2018-02-18T00:46:14.819Z,0
2018-02-18T00:47:14.526Z,0
2018-02-18T00:48:14.765Z,0
2018-02-18T00:49:14.259Z,0
2018-02-18T00:50:14.718Z,0
2018-02-18T00:51:14.950Z,0
2018-02-18T00:52:14.935Z,0
2018-02-18T00:53:14.378Z,0
2018-02-18T00:54:14.347Z,0
2018-02-18T00:55:14.320Z,0
2018-02-18T00:56:14.293Z,0
2018-02-18T00:57:14.268Z,0
2018-02-18T00:58:14.509Z,0
2018-02-18T00:59:14.488Z,0
2018-02-18T01:00:14.460Z,0
2018-02-18T01:01:14.175Z,0
2018-02-18T01:02:14.416Z,0
2018-02-18T01:03:14.124Z,0
2018-02-18T01:04:13.824Z,0
2018-02-18T01:05:14.388Z,0
2018-02-18T01:06:14.049Z,0
2018-02-18T01:07:14.030Z,0
2018-02-18T01:08:14.271Z,0
2018-02-18T01:09:14.279Z,0
2018-02-18T01:10:14.471Z,0
2018-02-18T01:11:13.927Z,0
2018-02-18T01:12:13.894Z,0
2018-02-18T01:13:13.876Z,0
2018-02-18T01:14:13.843Z,0
2018-02-18T01:15:14.356Z,0
2018-02-18T01:16:14.056Z,0
2018-02-18T01:17:13.509Z,0
2018-02-18T01:18:13.484Z,0
2018-02-18T01:19:13.985Z,0
2018-02-18T01:20:13.440Z,0
2018-02-18T01:21:13.395Z,0
2018-02-18T01:22:13.642Z,0
2018-02-18T01:23:13.876Z,0
2018-02-18T01:24:14.131Z,0
2018-02-18T01:25:13.832Z,0
2018-02-18T01:26:13.013Z,0
2018-02-18T01:27:13.508Z,0
2018-02-18T01:28:13.756Z,0
2018-02-18T01:29:13.985Z,0
2018-02-18T01:30:13.494Z,0
2018-02-18T01:31:13.421Z,0
2018-02-18T01:32:13.654Z,0
2018-02-18T01:33:13.366Z,0
2018-02-18T01:34:13.884Z,0
2018-02-18T01:35:13.361Z,0
2018-02-18T01:36:13.290Z,0
2018-02-18T01:37:13.528Z,0
2018-02-18T01:38:13.502Z,0
2018-02-18T01:39:13.206Z,0
2018-02-18T01:40:13.189Z,0
2018-02-18T01:41:13.701Z,0
2018-02-18T01:42:13.405Z,0
2018-02-18T01:43:13.384Z,0
2018-02-18T01:44:13.367Z,0
2018-02-18T01:45:13.321Z,0
2018-02-18T01:46:13.030Z,0
2018-02-18T01:47:13.272Z,0
2018-02-18T01:48:12.708Z,0
2018-02-18T01:49:13.226Z,0
2018-02-18T01:50:12.986Z,0
2018-02-18T01:51:12.908Z,0
2018-02-18T01:52:12.882Z,0
2018-02-18T01:53:13.118Z,0
2018-02-18T01:54:13.418Z,0
2018-02-18T01:55:13.335Z,0
2018-02-18T01:56:13.046Z,0
2018-02-18T01:57:12.748Z,0
2018-02-18T01:58:12.994Z,0
2018-02-18T01:59:12.701Z,0
2018-02-18T02:00:13.279Z,0
2018-02-18T02:01:12.922Z,0
2018-02-18T02:02:13.373Z,0
2018-02-18T02:03:12.605Z,0
2018-02-18T02:04:12.847Z,0
2018-02-18T02:05:13.086Z,0
2018-02-18T02:06:12.525Z,0
2018-02-18T02:07:12.769Z,0
2018-02-18T02:08:12.744Z,0
2018-02-18T02:09:12.456Z,0
2018-02-18T02:10:12.959Z,0
2018-02-18T02:11:12.664Z,0
2018-02-18T02:12:12.643Z,0
2018-02-18T02:13:12.610Z,0
2018-02-18T02:14:12.601Z,0
2018-02-18T02:15:12.560Z,0
2018-02-18T02:16:12.273Z,0
2018-02-18T02:17:12.244Z,0
2018-02-18T02:18:12.236Z,0
2018-02-18T02:19:12.201Z,0
2018-02-18T02:20:12.181Z,0
2018-02-18T02:21:12.686Z,0
2018-02-18T02:22:12.649Z,0
2018-02-18T02:23:11.865Z,0
2018-02-18T02:24:12.586Z,0
2018-02-18T02:25:12.315Z,0
2018-02-18T02:26:12.282Z,0
2018-02-18T02:27:12.487Z,0
2018-02-18T02:28:12.505Z,0
2018-02-18T02:29:12.213Z,0
2018-02-18T02:30:12.192Z,0
2018-02-18T02:31:12.440Z,0
2018-02-18T02:32:11.875Z,0
2018-02-18T02:33:11.883Z,0
2018-02-18T02:34:11.576Z,0
2018-02-18T02:35:12.347Z,0
2018-02-18T02:36:12.105Z,0
2018-02-18T02:37:11.781Z,0
2018-02-18T02:38:11.994Z,0
2018-02-18T02:39:11.972Z,0
2018-02-18T02:40:11.947Z,0
2018-02-18T02:41:11.670Z,0
2018-02-18T02:42:11.621Z,0
2018-02-18T02:43:11.321Z,0
2018-02-18T02:44:11.599Z,0
2018-02-18T02:45:11.813Z,0
2018-02-18T02:46:12.055Z,0
2018-02-18T02:47:12.050Z,0
2018-02-18T02:48:11.478Z,0
2018-02-18T02:49:11.983Z,0
2018-02-18T02:50:11.946Z,0
2018-02-18T02:51:10.882Z,0
2018-02-18T02:52:11.942Z,0
2018-02-18T02:53:11.605Z,0
2018-02-18T02:54:11.369Z,0
2018-02-18T02:55:11.288Z,0
2018-02-18T02:56:11.273Z,0
2018-02-18T02:57:11.507Z,0
2018-02-18T02:58:11.214Z,0
2018-02-18T02:59:10.925Z,0
2018-02-18T03:00:11.183Z,0
2018-02-18T03:01:11.670Z,0
2018-02-18T03:02:11.382Z,0
2018-02-18T03:03:11.096Z,0
2018-02-18T03:04:11.595Z,0
2018-02-18T03:05:11.028Z,0
2018-02-18T03:06:10.739Z,0
2018-02-18T03:07:10.978Z,0
2018-02-18T03:08:11.528Z,0
2018-02-18T03:09:11.529Z,0
2018-02-18T03:10:11.167Z,0
2018-02-18T03:11:11.453Z,0
2018-02-18T03:12:11.391Z,0
2018-02-18T03:13:10.831Z,0
2018-02-18T03:14:11.067Z,0
2018-02-18T03:15:11.042Z,0
2018-02-18T03:16:11.010Z,0
2018-02-18T03:17:10.998Z,0
2018-02-18T03:18:11.239Z,0
2018-02-18T03:19:11.200Z,0
2018-02-18T03:20:10.656Z,0
2018-02-18T03:21:10.347Z,0
2018-02-18T03:22:11.139Z,0
2018-02-18T03:23:10.834Z,0
2018-02-18T03:24:11.894Z,0
2018-02-18T03:25:11.049Z,0
2018-02-18T03:26:10.485Z,0
2018-02-18T03:27:11.014Z,0
2018-02-18T03:28:10.437Z,0
2018-02-18T03:29:10.421Z,0
2018-02-18T03:30:10.984Z,0
2018-02-18T03:31:10.973Z,0
2018-02-18T03:32:10.676Z,0
2018-02-18T03:33:10.901Z,0
2018-02-18T03:34:10.550Z,0
2018-02-18T03:35:10.258Z,0
2018-02-18T03:36:10.506Z,0
2018-02-18T03:37:10.484Z,0
2018-02-18T03:38:10.191Z,0
2018-02-18T03:39:10.433Z,0
2018-02-18T03:40:10.136Z,0
2018-02-18T03:41:10.368Z,0
2018-02-18T03:42:10.674Z,0
2018-02-18T03:43:10.583Z,0
2018-02-18T03:44:10.314Z,0
2018-02-18T03:45:09.490Z,0
2018-02-18T03:46:09.453Z,0
2018-02-18T03:47:10.496Z,0
2018-02-18T03:48:10.219Z,0
2018-02-18T03:49:10.176Z,0
2018-02-18T03:50:09.882Z,0
2018-02-18T03:51:10.145Z,0
2018-02-18T03:52:09.891Z,0
2018-02-18T03:53:10.071Z,0
2018-02-18T03:54:10.240Z,0
2018-02-18T03:55:09.741Z,0
2018-02-18T03:56:09.990Z,0
2018-02-18T03:57:09.959Z,0
2018-02-18T03:58:09.667Z,0
2018-02-18T03:59:09.929Z,0
2018-02-18T04:00:09.350Z,0
2018-02-18T04:01:09.860Z,0
2018-02-18T04:02:09.043Z,0
2018-02-18T04:03:09.808Z,0
2018-02-18T04:04:10.049Z,0
2018-02-18T04:05:09.749Z,0
2018-02-18T04:06:09.199Z,0
2018-02-18T04:07:09.712Z,0
2018-02-18T04:08:09.675Z,0
2018-02-18T04:09:09.385Z,0
2018-02-18T04:10:09.358Z,0
2018-02-18T04:11:09.333Z,0
2018-02-18T04:12:09.306Z,0
2018-02-18T04:13:09.026Z,0
2018-02-18T04:14:09.257Z,0
2018-02-18T04:15:09.227Z,0
2018-02-18T04:16:09.199Z,0
2018-02-18T04:17:09.456Z,0
2018-02-18T04:18:09.146Z,0
2018-02-18T04:19:09.659Z,0
2018-02-18T04:20:09.376Z,0
2018-02-18T04:21:09.658Z,0
2018-02-18T04:22:09.669Z,0
2018-02-18T04:23:09.291Z,0
2018-02-18T04:24:09.263Z,0
2018-02-18T04:25:08.999Z,0
2018-02-18T04:26:09.214Z,0
2018-02-18T04:27:08.918Z,0
2018-02-18T04:28:08.927Z,0
2018-02-18T04:29:09.130Z,0
2018-02-18T04:30:09.103Z,0
2018-02-18T04:31:09.348Z,0
2018-02-18T04:32:08.795Z,0
2018-02-18T04:33:08.759Z,0
2018-02-18T04:34:08.205Z,0
2018-02-18T04:35:08.980Z,0
2018-02-18T04:36:08.957Z,0
2018-02-18T04:37:08.924Z,0
2018-02-18T04:38:08.635Z,0
2018-02-18T04:39:08.862Z,0
2018-02-18T04:40:08.586Z,0
2018-02-18T04:41:08.822Z,0
2018-02-18T04:42:08.794Z,0
2018-02-18T04:43:09.032Z,0
2018-02-18T04:44:08.740Z,0
2018-02-18T04:45:08.722Z,0
2018-02-18T04:46:08.423Z,0
2018-02-18T04:47:08.394Z,0
2018-02-18T04:48:08.099Z,0
2018-02-18T04:49:08.389Z,0
2018-02-18T04:50:08.330Z,0
2018-02-18T04:51:08.045Z,0
2018-02-18T04:52:08.296Z,0
2018-02-18T04:53:08.526Z,0
2018-02-18T04:54:08.488Z,0
2018-02-18T04:55:08.716Z,0
2018-02-18T04:56:08.177Z,0
2018-02-18T04:57:08.407Z,0
2018-02-18T04:58:08.135Z,0
2018-02-18T04:59:08.367Z,0
2018-02-18T05:00:07.787Z,0
2018-02-18T05:01:08.033Z,0
2018-02-18T05:02:07.735Z,0
2018-02-18T05:03:07.983Z,0
2018-02-18T05:04:07.953Z,0
2018-02-18T05:05:07.661Z,0
2018-02-18T05:06:08.165Z,0
2018-02-18T05:07:08.134Z,0
2018-02-18T05:08:07.860Z,0
2018-02-18T05:09:07.820Z,0
2018-02-18T05:10:08.336Z,0
2018-02-18T05:11:07.765Z,0
2018-02-18T05:12:08.013Z,0
2018-02-18T05:13:07.717Z,0
2018-02-18T05:14:07.431Z,0
2018-02-18T05:15:07.934Z,0
2018-02-18T05:16:08.198Z,0
2018-02-18T05:17:07.895Z,0
2018-02-18T05:18:07.591Z,0
2018-02-18T05:19:07.834Z,0
2018-02-18T05:20:07.538Z,0
2018-02-18T05:21:07.793Z,0
2018-02-18T05:22:07.772Z,0
2018-02-18T05:23:07.720Z,0
2018-02-18T05:24:07.631Z,0
2018-02-18T05:25:07.406Z,0
2018-02-18T05:26:07.910Z,0
2018-02-18T05:27:07.354Z,0
2018-02-18T05:28:07.331Z,0
2018-02-18T05:29:07.841Z,0
2018-02-18T05:30:07.547Z,0
2018-02-18T05:31:07.252Z,0
2018-02-18T05:32:06.964Z,0
2018-02-18T05:33:07.462Z,0
2018-02-18T05:34:07.175Z,0
2018-02-18T05:35:07.405Z,0
2018-02-18T05:36:07.389Z,0
2018-02-18T05:37:07.363Z,0
2018-02-18T05:38:07.071Z,0
2018-02-18T05:39:06.772Z,0
2018-02-18T05:40:06.478Z,0
2018-02-18T05:41:06.988Z,0
2018-02-18T05:42:07.493Z,0
2018-02-18T05:43:06.669Z,0
2018-02-18T05:44:06.643Z,0
2018-02-18T05:45:07.420Z,0
2018-02-18T05:46:07.120Z,0
2018-02-18T05:47:06.825Z,0
2018-02-18T05:48:07.107Z,0
2018-02-18T05:49:06.774Z,0
2018-02-18T05:50:06.218Z,0
2018-02-18T05:51:06.994Z,0
2018-02-18T05:52:06.706Z,0
2018-02-18T05:53:07.222Z,0
2018-02-18T05:54:06.910Z,0
2018-02-18T05:55:06.880Z,0
2018-02-18T05:56:06.595Z,0
2018-02-18T05:57:06.575Z,0
2018-02-18T05:58:06.808Z,0
2018-02-18T05:59:06.513Z,0
2018-02-18T06:00:06.758Z,0
2018-02-18T06:01:06.735Z,0
2018-02-18T06:02:06.718Z,0
2018-02-18T06:03:06.688Z,0
2018-02-18T06:04:06.385Z,0
2018-02-18T06:05:06.889Z,0
2018-02-18T06:06:06.595Z,0
2018-02-18T06:07:06.580Z,0
2018-02-18T06:08:06.286Z,0
2018-02-18T06:09:06.006Z,0
2018-02-18T06:10:06.229Z,0
2018-02-18T06:11:06.253Z,0
2018-02-18T06:12:05.922Z,0
2018-02-18T06:13:06.160Z,0
2018-02-18T06:14:06.398Z,0
2018-02-18T06:15:06.362Z,0
2018-02-18T06:16:06.593Z,0
2018-02-18T06:17:06.260Z,0
2018-02-18T06:18:05.753Z,0
2018-02-18T06:19:06.254Z,0
2018-02-18T06:20:05.966Z,0
2018-02-18T06:21:06.209Z,0
2018-02-18T06:22:06.179Z,0
2018-02-18T06:23:06.300Z,0
2018-02-18T06:24:05.860Z,0
2018-02-18T06:25:05.854Z,0
2018-02-18T06:26:06.184Z,0
2018-02-18T06:27:06.050Z,0
2018-02-18T06:28:05.488Z,0
2018-02-18T06:29:06.008Z,0
2018-02-18T06:30:05.742Z,0
2018-02-18T06:31:05.181Z,0
2018-02-18T06:32:05.926Z,0
2018-02-18T06:33:05.921Z,0
2018-02-18T06:34:05.874Z,0
2018-02-18T06:35:05.852Z,0
2018-02-18T06:36:05.554Z,0
2018-02-18T06:37:05.270Z,5
2018-02-18T06:38:05.510Z,5
2018-02-18T06:39:05.471Z,5
2018-02-18T06:40:05.185Z,5
2018-02-18T06:41:05.954Z,5
2018-02-18T06:42:05.129Z,5
2018-02-18T06:43:05.359Z,5
2018-02-18T06:44:05.331Z,5
2018-02-18T06:45:05.837Z,5
2018-02-18T06:46:05.014Z,10
2018-02-18T06:47:05.405Z,10
2018-02-18T06:48:05.545Z,10
2018-02-18T06:49:04.941Z,10
2018-02-18T06:50:05.174Z,10
2018-02-18T06:51:05.153Z,10
2018-02-18T06:52:05.412Z,10
2018-02-18T06:53:05.632Z,15
2018-02-18T06:54:04.831Z,15
2018-02-18T06:55:05.256Z,15
2018-02-18T06:56:04.765Z,15
2018-02-18T06:57:05.548Z,15
2018-02-18T06:58:05.038Z,15
2018-02-18T06:59:04.689Z,20
2018-02-18T07:00:05.196Z,20
2018-02-18T07:01:05.510Z,20
2018-02-18T07:02:04.859Z,20
2018-02-18T07:03:05.105Z,20
2018-02-18T07:04:04.816Z,20
2018-02-18T07:05:05.048Z,25
2018-02-18T07:06:05.312Z,25
2018-02-18T07:07:05.019Z,25
2018-02-18T07:08:04.725Z,25
2018-02-18T07:09:04.685Z,25
2018-02-18T07:10:04.654Z,25
2018-02-18T07:11:05.177Z,30
2018-02-18T07:12:05.137Z,30
2018-02-18T07:13:04.864Z,30
2018-02-18T07:14:04.825Z,30
2018-02-18T07:15:04.808Z,30
2018-02-18T07:16:04.764Z,30
2018-02-18T07:17:04.729Z,35
2018-02-18T07:18:04.753Z,35
2018-02-18T07:19:04.817Z,35
2018-02-18T07:20:04.420Z,35
2018-02-18T07:21:04.094Z,35
2018-02-18T07:22:04.610Z,40
2018-02-18T07:23:04.394Z,40
2018-02-18T07:24:04.765Z,40
2018-02-18T07:25:04.546Z,40
2018-02-18T07:26:04.783Z,40
2018-02-18T07:27:03.944Z,40
2018-02-18T07:28:03.679Z,45
2018-02-18T07:29:04.422Z,45
2018-02-18T07:30:04.681Z,45
2018-02-18T07:31:04.370Z,45
2018-02-18T07:32:04.077Z,45
2018-02-18T07:33:04.253Z,45
2018-02-18T07:34:03.758Z,45
2018-02-18T07:35:04.541Z,50
2018-02-18T07:36:04.244Z,50
2018-02-18T07:37:03.967Z,50
2018-02-18T07:38:03.956Z,50
2018-02-18T07:39:03.899Z,50
2018-02-18T07:40:03.888Z,50
2018-02-18T07:41:03.865Z,55
2018-02-18T07:42:04.092Z,55
2018-02-18T07:43:04.421Z,55
2018-02-18T07:44:04.038Z,55
2018-02-18T07:45:04.012Z,55
2018-02-18T07:46:03.992Z,55
2018-02-18T07:47:03.685Z,60
2018-02-18T07:48:03.937Z,60
2018-02-18T07:49:03.903Z,60
2018-02-18T07:50:03.632Z,60
2018-02-18T07:51:03.591Z,60
2018-02-18T07:52:03.033Z,60
2018-02-18T07:53:04.072Z,60
2018-02-18T07:54:03.784Z,60
2018-02-18T07:55:03.771Z,65
2018-02-18T07:56:03.202Z,65
2018-02-18T07:57:03.210Z,65
2018-02-18T07:58:03.421Z,65
2018-02-18T07:59:03.928Z,65
2018-02-18T08:00:03.883Z,65
2018-02-18T08:01:03.326Z,65
2018-02-18T08:02:03.848Z,70
2018-02-18T08:03:03.286Z,70
2018-02-18T08:04:03.515Z,70
2018-02-18T08:05:03.234Z,70
2018-02-18T08:06:03.466Z,70
2018-02-18T08:07:03.475Z,70
2018-02-18T08:08:03.416Z,70
2018-02-18T08:09:03.394Z,75
2018-02-18T08:10:03.637Z,75
2018-02-18T08:11:03.074Z,75
2018-02-18T08:12:03.590Z,75
2018-02-18T08:13:03.306Z,80
2018-02-18T08:14:02.996Z,80
2018-02-18T08:15:02.731Z,80
2018-02-18T08:16:02.701Z,80
2018-02-18T08:17:02.947Z,85
2018-02-18T08:18:03.439Z,85
2018-02-18T08:19:03.153Z,85
2018-02-18T08:20:02.858Z,85
2018-02-18T08:21:02.557Z,90
2018-02-18T08:22:03.066Z,90
2018-02-18T08:23:03.307Z,90
2018-02-18T08:24:02.764Z,90
2018-02-18T08:25:03.052Z,90
2018-02-18T08:26:02.967Z,90
2018-02-18T08:27:02.946Z,95
2018-02-18T08:28:02.925Z,95
2018-02-18T08:29:02.894Z,115
2018-02-18T08:30:03.152Z,160
2018-02-18T08:31:02.333Z,165
2018-02-18T08:32:02.583Z,120
2018-02-18T08:33:02.282Z,110
2018-02-18T08:34:02.294Z,110
2018-02-18T08:35:02.766Z,110
2018-02-18T08:36:02.459Z,130
2018-02-18T08:37:02.704Z,175
2018-02-18T08:38:02.700Z,295
2018-02-18T08:39:02.671Z,380
2018-02-18T08:40:02.367Z,390
2018-02-18T08:41:02.086Z,355
2018-02-18T08:42:02.313Z,245
2018-02-18T08:43:02.028Z,210
2018-02-18T08:44:02.018Z,305
2018-02-18T08:45:02.527Z,400
2018-02-18T08:46:02.769Z,420
2018-02-18T08:47:01.944Z,420
2018-02-18T08:48:02.457Z,375
2018-02-18T08:49:02.490Z,280
2018-02-18T08:50:02.144Z,180
2018-02-18T08:51:02.410Z,165
2018-02-18T08:52:02.369Z,270
2018-02-18T08:53:02.073Z,370
2018-02-18T08:54:02.338Z,395
2018-02-18T08:55:02.048Z,395
2018-02-18T08:56:02.287Z,365
2018-02-18T08:57:01.482Z,345
2018-02-18T08:58:02.526Z,355
2018-02-18T08:59:02.504Z,375
2018-02-18T09:00:02.223Z,360
2018-02-18T09:01:02.207Z,360
2018-02-18T09:02:01.653Z,355
2018-02-18T09:03:02.183Z,330
2018-02-18T09:04:02.447Z,315
2018-02-18T09:05:01.626Z,320
2018-02-18T09:06:01.869Z,350
2018-02-18T09:07:01.829Z,370
2018-02-18T09:08:02.342Z,315
2018-02-18T09:09:01.530Z,320
2018-02-18T09:10:02.057Z,415
2018-02-18T09:11:01.749Z,460
2018-02-18T09:12:01.998Z,480
2018-02-18T09:13:01.980Z,505
2018-02-18T09:14:01.970Z,440
2018-02-18T09:15:01.995Z,320
2018-02-18T09:16:01.697Z,290
2018-02-18T09:17:02.201Z,350
2018-02-18T09:18:01.647Z,320
2018-02-18T09:19:01.623Z,280
2018-02-18T09:20:01.346Z,260
2018-02-18T09:21:01.586Z,295
2018-02-18T09:22:01.306Z,280
2018-02-18T09:23:01.022Z,270
2018-02-18T09:24:02.002Z,300
2018-02-18T09:25:01.785Z,330
2018-02-18T09:26:01.778Z,320
2018-02-18T09:27:00.962Z,295
2018-02-18T09:28:01.467Z,335
2018-02-18T09:29:01.477Z,365
2018-02-18T09:30:01.729Z,340
2018-02-18T09:31:01.424Z,275
2018-02-18T09:32:01.940Z,215
2018-02-18T09:33:01.399Z,215
2018-02-18T09:34:01.389Z,215
2018-02-18T09:35:01.381Z,220
2018-02-18T09:36:01.384Z,265
2018-02-18T09:37:01.330Z,270
2018-02-18T09:38:01.307Z,280
2018-02-18T09:39:01.776Z,365
2018-02-18T09:40:01.296Z,510
2018-02-18T09:41:01.267Z,420
2018-02-18T09:42:01.790Z,240
2018-02-18T09:43:01.752Z,210
2018-02-18T09:44:00.956Z,265
2018-02-18T09:45:01.137Z,510
2018-02-18T09:46:01.724Z,515
2018-02-18T09:47:01.698Z,490
2018-02-18T09:48:00.917Z,305
2018-02-18T09:49:01.658Z,165
2018-02-18T09:50:01.650Z,260
2018-02-18T09:51:01.088Z,405
2018-02-18T09:52:01.347Z,545
2018-02-18T09:53:01.312Z,465
2018-02-18T09:54:01.029Z,395
2018-02-18T09:55:01.233Z,300
2018-02-18T09:56:01.280Z,210
2018-02-18T09:57:00.989Z,335
2018-02-18T09:58:00.989Z,505
2018-02-18T09:59:00.957Z,585
2018-02-18T10:00:00.934Z,500
2018-02-18T10:01:01.180Z,310
2018-02-18T10:02:01.441Z,260
2018-02-18T10:03:00.623Z,265
2018-02-18T10:04:01.136Z,265
2018-02-18T10:05:01.380Z,250
2018-02-18T10:06:00.842Z,370
2018-02-18T10:07:01.289Z,460
2018-02-18T10:08:00.817Z,270
2018-02-18T10:09:00.510Z,195
2018-02-18T10:10:01.306Z,320
2018-02-18T10:11:01.292Z,450
2018-02-18T10:12:00.761Z,410
2018-02-18T10:13:00.984Z,360
2018-02-18T10:14:01.169Z,480
2018-02-18T10:15:01.204Z,570
2018-02-18T10:16:00.959Z,685
2018-02-18T10:17:00.660Z,630
2018-02-18T10:18:00.703Z,595
2018-02-18T10:19:00.618Z,530
2018-02-18T10:20:00.381Z,560
2018-02-18T10:21:00.850Z,590
2018-02-18T10:22:00.056Z,500
2018-02-18T10:23:00.563Z,480
2018-02-18T10:24:00.286Z,465
2018-02-18T10:25:00.835Z,595
2018-02-18T10:26:00.798Z,740
2018-02-18T10:27:00.772Z,450
2018-02-18T10:28:00.212Z,290
2018-02-18T10:29:02.542Z,350
2018-02-18T10:30:00.478Z,475
2018-02-18T10:31:00.431Z,565
2018-02-18T10:32:00.473Z,440
2018-02-18T10:32:59.880Z,375
2018-02-18T10:34:00.391Z,530
2018-02-18T10:35:00.655Z,560
2018-02-18T10:36:00.103Z,695
2018-02-18T10:37:00.346Z,595
2018-02-18T10:38:00.608Z,445
2018-02-18T10:39:00.583Z,610
2018-02-18T10:40:00.579Z,735
2018-02-18T10:41:00.833Z,740
2018-02-18T10:42:00.018Z,575
2018-02-18T10:43:00.534Z,470
2018-02-18T10:44:00.261Z,615
2018-02-18T10:45:00.502Z,625
2018-02-18T10:46:00.499Z,535
2018-02-18T10:47:00.485Z,520
2018-02-18T10:48:00.555Z,505
2018-02-18T10:49:00.744Z,575
2018-02-18T10:50:00.437Z,505
2018-02-18T10:51:00.164Z,375
2018-02-18T10:52:00.433Z,295
2018-02-18T10:53:00.135Z,265
2018-02-18T10:54:00.657Z,440
2018-02-18T10:55:00.112Z,655
2018-02-18T10:56:00.362Z,720
2018-02-18T10:57:00.365Z,725
2018-02-18T10:58:00.341Z,635
2018-02-18T10:59:00.323Z,595
2018-02-18T11:00:00.119Z,465
2018-02-18T11:01:00.568Z,425
2018-02-18T11:02:00.015Z,425
2018-02-18T11:03:00.565Z,505
2018-02-18T11:04:00.222Z,460
2018-02-18T11:04:59.746Z,480
2018-02-18T11:06:00.560Z,685
2018-02-18T11:07:00.221Z,665
2018-02-18T11:07:59.421Z,710
2018-02-18T11:08:59.928Z,620
2018-02-18T11:09:59.923Z,620
2018-02-18T11:11:00.105Z,560
2018-02-18T11:12:00.167Z,365
2018-02-18T11:13:00.408Z,305
2018-02-18T11:14:00.140Z,515
2018-02-18T11:15:00.138Z,560
2018-02-18T11:15:59.833Z,650
2018-02-18T11:17:00.352Z,735
2018-02-18T11:18:00.074Z,770
2018-02-18T11:18:59.549Z,650
2018-02-18T11:20:00.063Z,555
2018-02-18T11:21:00.039Z,535
2018-02-18T11:22:00.029Z,570
2018-02-18T11:22:59.480Z,535
2018-02-18T11:24:00.160Z,550
2018-02-18T11:24:59.989Z,535
2018-02-18T11:25:59.728Z,455
2018-02-18T11:26:59.972Z,345
2018-02-18T11:27:59.694Z,360
2018-02-18T11:28:59.698Z,485
2018-02-18T11:29:59.759Z,620
2018-02-18T11:30:59.921Z,655
2018-02-18T11:31:59.655Z,580
2018-02-18T11:32:59.890Z,595
2018-02-18T11:34:00.165Z,750
2018-02-18T11:35:00.141Z,755
2018-02-18T11:35:59.834Z,655
2018-02-18T11:36:59.304Z,645
2018-02-18T11:37:59.880Z,565
2018-02-18T11:38:59.296Z,550
2018-02-18T11:39:59.346Z,560
2018-02-18T11:40:59.340Z,705
2018-02-18T11:41:59.796Z,715
2018-02-18T11:42:59.507Z,640
2018-02-18T11:43:59.239Z,680
2018-02-18T11:44:59.752Z,740
2018-02-18T11:45:59.482Z,785
2018-02-18T11:47:00.004Z,830
2018-02-18T11:47:59.732Z,775
2018-02-18T11:48:59.989Z,640
2018-02-18T11:49:59.176Z,650
2018-02-18T11:50:59.160Z,625
2018-02-18T11:51:59.421Z,595
2018-02-18T11:52:59.422Z,535
2018-02-18T11:53:59.677Z,455
2018-02-18T11:54:59.397Z,505
2018-02-18T11:55:59.384Z,670
2018-02-18T11:56:59.642Z,715
2018-02-18T11:57:59.372Z,750
2018-02-18T11:58:59.359Z,810
2018-02-18T11:59:59.354Z,780
2018-02-18T12:00:59.603Z,605
2018-02-18T12:01:59.593Z,645
2018-02-18T12:02:59.338Z,660
2018-02-18T12:03:59.045Z,630
2018-02-18T12:04:59.305Z,740
2018-02-18T12:05:59.563Z,935
2018-02-18T12:06:59.556Z,955
2018-02-18T12:07:59.274Z,905
2018-02-18T12:08:59.009Z,980
2018-02-18T12:09:59.534Z,985
2018-02-18T12:10:59.518Z,975
2018-02-18T12:11:59.874Z,985
2018-02-18T12:12:59.240Z,995
2018-02-18T12:13:59.293Z,935
2018-02-18T12:14:59.478Z,895
2018-02-18T12:15:59.477Z,970
2018-02-18T12:16:59.204Z,1000
2018-02-18T12:17:59.206Z,955
2018-02-18T12:18:59.189Z,1010
2018-02-18T12:19:59.188Z,995
2018-02-18T12:20:59.732Z,970
2018-02-18T12:21:59.466Z,970
2018-02-18T12:22:58.890Z,995
2018-02-18T12:23:59.687Z,1015
2018-02-18T12:24:59.416Z,1010
2018-02-18T12:25:59.138Z,1040
2018-02-18T12:26:59.437Z,1045
2018-02-18T12:27:59.406Z,1050
2018-02-18T12:28:59.400Z,1040
2018-02-18T12:29:59.671Z,1035
2018-02-18T12:30:59.376Z,1005
2018-02-18T12:31:59.631Z,935
2018-02-18T12:32:58.558Z,955
2018-02-18T12:33:59.085Z,970
2018-02-18T12:34:59.081Z,910
2018-02-18T12:35:59.082Z,920
2018-02-18T12:36:59.074Z,915
2018-02-18T12:37:59.317Z,905
2018-02-18T12:38:59.587Z,880
2018-02-18T12:39:59.341Z,865
2018-02-18T12:40:59.040Z,925
2018-02-18T12:41:59.298Z,905
2018-02-18T12:42:59.309Z,905
2018-02-18T12:43:59.021Z,865
2018-02-18T12:44:59.554Z,835
2018-02-18T12:45:59.548Z,860
2018-02-18T12:46:59.287Z,880
2018-02-18T12:47:59.258Z,870
2018-02-18T12:48:59.015Z,900
2018-02-18T12:49:58.995Z,915
2018-02-18T12:50:59.276Z,940
2018-02-18T12:51:59.513Z,935
2018-02-18T12:52:59.258Z,915
2018-02-18T12:53:59.498Z,900
2018-02-18T12:54:59.282Z,890
2018-02-18T12:55:59.221Z,925
2018-02-18T12:56:59.289Z,935
2018-02-18T12:57:59.216Z,985
2018-02-18T12:58:59.230Z,995
2018-02-18T12:59:59.197Z,975
2018-02-18T13:00:58.958Z,970
2018-02-18T13:01:59.205Z,980
2018-02-18T13:02:58.964Z,950
2018-02-18T13:03:59.447Z,950
2018-02-18T13:04:58.922Z,945
2018-02-18T13:05:58.920Z,940
2018-02-18T13:06:59.183Z,930
2018-02-18T13:07:58.897Z,915
2018-02-18T13:08:58.900Z,905
2018-02-18T13:09:58.879Z,870
2018-02-18T13:10:59.164Z,810
2018-02-18T13:11:59.129Z,935
2018-02-18T13:12:58.897Z,930
2018-02-18T13:13:58.581Z,925
2018-02-18T13:14:58.590Z,930
2018-02-18T13:15:59.371Z,925
2018-02-18T13:16:58.847Z,935
2018-02-18T13:17:59.094Z,925
2018-02-18T13:18:59.190Z,915
2018-02-18T13:19:58.814Z,905
2018-02-18T13:20:58.890Z,910
2018-02-18T13:21:59.067Z,905
2018-02-18T13:22:59.076Z,960
2018-02-18T13:23:58.749Z,1025
2018-02-18T13:24:59.078Z,1035
2018-02-18T13:25:59.317Z,1000
2018-02-18T13:26:59.111Z,905
2018-02-18T13:27:59.042Z,970
2018-02-18T13:28:58.777Z,975
2018-02-18T13:29:59.022Z,980
2018-02-18T13:30:58.762Z,975
2018-02-18T13:31:58.762Z,980
2018-02-18T13:32:58.483Z,980
2018-02-18T13:33:59.020Z,950
2018-02-18T13:34:59.011Z,950
2018-02-18T13:35:59.006Z,880
2018-02-18T13:36:58.993Z,710
2018-02-18T13:37:59.094Z,505
2018-02-18T13:38:58.734Z,435
2018-02-18T13:39:58.986Z,360
2018-02-18T13:40:58.996Z,395
2018-02-18T13:41:58.972Z,380
2018-02-18T13:42:58.980Z,385
2018-02-18T13:43:58.964Z,350
2018-02-18T13:44:58.970Z,345
2018-02-18T13:45:58.426Z,365
2018-02-18T13:46:58.684Z,345
2018-02-18T13:47:58.962Z,325
2018-02-18T13:48:58.937Z,325
2018-02-18T13:49:58.932Z,360
2018-02-18T13:50:58.920Z,385
2018-02-18T13:51:58.391Z,365
2018-02-18T13:52:58.639Z,360
2018-02-18T13:53:58.631Z,335
2018-02-18T13:54:59.153Z,375
2018-02-18T13:55:58.878Z,365
2018-02-18T13:56:58.877Z,330
2018-02-18T13:57:58.876Z,355
2018-02-18T13:58:59.129Z,325
2018-02-18T13:59:58.850Z,390
2018-02-18T14:00:58.842Z,405
2018-02-18T14:01:58.561Z,470
2018-02-18T14:02:58.840Z,465
2018-02-18T14:03:58.548Z,470
2018-02-18T14:04:58.829Z,510
2018-02-18T14:05:59.053Z,540
2018-02-18T14:06:58.252Z,550
2018-02-18T14:07:59.040Z,485
2018-02-18T14:08:58.782Z,410
2018-02-18T14:09:58.218Z,360
2018-02-18T14:10:58.741Z,345
2018-02-18T14:11:58.728Z,330
2018-02-18T14:12:58.986Z,310
2018-02-18T14:13:58.441Z,290
2018-02-18T14:14:58.713Z,300
2018-02-18T14:15:58.695Z,315
2018-02-18T14:16:58.733Z,295